YV3105 SVMI-SVVA
Flight info
| Callsign | YV3105 |
|---|---|
| Flight time | 0h 46m |
| Altitude | 10000 |
| Route | SVMI 09 MARES1 MARES DCT SVPC DCT SVVA VAL D10 |
| Aircraft | C208/L-SDC/C |
Departure
| Time | 2026-05-05 23:03 |
|---|---|
| Airport | Maiquetía Simón Bolívar International Airport (SVMI) |
Arrival
| Time | 2026-05-05 23:50 |
|---|---|
| Airport | Arturo Michelena International Airport (SVVA) |
| Time | Latitude | Longitude | Altitude | Speed | Heading |
|---|---|---|---|---|---|
| 2026-05-05 22:56 | 10.60064 | -66.99976 | 218 ft | 0 kts | 178° |
| 2026-05-05 22:57 | 10.60039 | -66.99972 | 218 ft | 9 kts | 142° |
| 2026-05-05 22:57 | 10.60056 | -66.99918 | 217 ft | 10 kts | 9° |
| 2026-05-05 22:58 | 10.60125 | -66.99898 | 216 ft | 11 kts | 53° |
| 2026-05-05 22:58 | 10.60137 | -66.99804 | 216 ft | 15 kts | 87° |
| 2026-05-05 22:58 | 10.60132 | -66.99686 | 212 ft | 18 kts | 117° |
| 2026-05-05 22:58 | 10.60053 | -66.99664 | 216 ft | 9 kts | 178° |
| 2026-05-05 22:59 | 10.60000 | -66.99663 | 217 ft | 6 kts | 179° |
| 2026-05-05 22:59 | 10.59978 | -66.99662 | 217 ft | 0 kts | 178° |
| 2026-05-05 23:00 | 10.59977 | -66.99662 | 217 ft | 0 kts | 179° |
| 2026-05-05 23:01 | 10.59944 | -66.99664 | 218 ft | 12 kts | 198° |
| 2026-05-05 23:02 | 10.59909 | -66.99613 | 215 ft | 21 kts | 75° |
| 2026-05-05 23:02 | 10.60006 | -66.99218 | 196 ft | 88 kts | 76° |
| 2026-05-05 23:02 | 10.60174 | -66.98540 | 350 ft | 102 kts | 76° |
| 2026-05-05 23:02 | 10.60323 | -66.97829 | 584 ft | 103 kts | 79° |
| 2026-05-05 23:03 | 10.60461 | -66.97109 | 811 ft | 104 kts | 78° |
| 2026-05-05 23:03 | 10.60729 | -66.96427 | 995 ft | 114 kts | 42° |
| 2026-05-05 23:03 | 10.61504 | -66.96313 | 1180 ft | 125 kts | 335° |
| 2026-05-05 23:03 | 10.62054 | -66.96986 | 1415 ft | 128 kts | 289° |
| 2026-05-05 23:04 | 10.62052 | -66.97890 | 1649 ft | 129 kts | 264° |
| 2026-05-05 23:04 | 10.62038 | -66.98814 | 1881 ft | 132 kts | 273° |
| 2026-05-05 23:04 | 10.62252 | -66.99720 | 2113 ft | 132 kts | 288° |
| 2026-05-05 23:04 | 10.62429 | -67.00639 | 2339 ft | 133 kts | 277° |
| 2026-05-05 23:05 | 10.62836 | -67.01457 | 2547 ft | 133 kts | 316° |
| 2026-05-05 23:05 | 10.63427 | -67.02176 | 2774 ft | 133 kts | 303° |
| 2026-05-05 23:05 | 10.63897 | -67.02991 | 3002 ft | 134 kts | 298° |
| 2026-05-05 23:05 | 10.64380 | -67.03804 | 3224 ft | 135 kts | 302° |
| 2026-05-05 23:06 | 10.64891 | -67.04605 | 3453 ft | 135 kts | 303° |
| 2026-05-05 23:06 | 10.65442 | -67.05377 | 3676 ft | 134 kts | 309° |
| 2026-05-05 23:06 | 10.66252 | -67.05829 | 3889 ft | 134 kts | 341° |
| 2026-05-05 23:06 | 10.67003 | -67.06356 | 4101 ft | 133 kts | 306° |
| 2026-05-05 23:07 | 10.67546 | -67.07117 | 4328 ft | 133 kts | 309° |
| 2026-05-05 23:07 | 10.68160 | -67.07828 | 4557 ft | 134 kts | 310° |
| 2026-05-05 23:07 | 10.68763 | -67.08547 | 4782 ft | 135 kts | 309° |
| 2026-05-05 23:07 | 10.69351 | -67.09274 | 5005 ft | 135 kts | 308° |
| 2026-05-05 23:08 | 10.69943 | -67.10017 | 5228 ft | 134 kts | 308° |
| 2026-05-05 23:08 | 10.70527 | -67.10755 | 5440 ft | 137 kts | 309° |
| 2026-05-05 23:08 | 10.71143 | -67.11530 | 5650 ft | 144 kts | 309° |
| 2026-05-05 23:08 | 10.71782 | -67.12332 | 5876 ft | 148 kts | 310° |
| 2026-05-05 23:09 | 10.72428 | -67.13142 | 6103 ft | 148 kts | 309° |
| 2026-05-05 23:09 | 10.73074 | -67.13954 | 6333 ft | 147 kts | 309° |
| 2026-05-05 23:09 | 10.73716 | -67.14759 | 6556 ft | 147 kts | 309° |
| 2026-05-05 23:09 | 10.74358 | -67.15566 | 6779 ft | 147 kts | 309° |
| 2026-05-05 23:10 | 10.75000 | -67.16370 | 6999 ft | 147 kts | 309° |
| 2026-05-05 23:10 | 10.75634 | -67.17168 | 7228 ft | 147 kts | 309° |
| 2026-05-05 23:10 | 10.76286 | -67.17985 | 7452 ft | 146 kts | 309° |
| 2026-05-05 23:10 | 10.76924 | -67.18787 | 7674 ft | 146 kts | 309° |
| 2026-05-05 23:11 | 10.77554 | -67.19581 | 7893 ft | 146 kts | 310° |
| 2026-05-05 23:11 | 10.78201 | -67.20394 | 8119 ft | 146 kts | 310° |
| 2026-05-05 23:11 | 10.78704 | -67.21258 | 8330 ft | 145 kts | 281° |
| 2026-05-05 23:11 | 10.78672 | -67.22262 | 8545 ft | 141 kts | 253° |
| 2026-05-05 23:12 | 10.78354 | -67.23199 | 8772 ft | 139 kts | 244° |
| 2026-05-05 23:12 | 10.78122 | -67.23821 | 8925 ft | 140 kts | 244° |
| 2026-05-05 23:12 | 10.77843 | -67.24586 | 9114 ft | 140 kts | 245° |
| 2026-05-05 23:13 | 10.77513 | -67.25514 | 9335 ft | 139 kts | 245° |
| 2026-05-05 23:13 | 10.77188 | -67.26445 | 9556 ft | 140 kts | 245° |
| 2026-05-05 23:13 | 10.76861 | -67.27376 | 9779 ft | 140 kts | 245° |
| 2026-05-05 23:13 | 10.76528 | -67.28313 | 9940 ft | 145 kts | 245° |
| 2026-05-05 23:14 | 10.76168 | -67.29324 | 9956 ft | 157 kts | 245° |
| 2026-05-05 23:14 | 10.75790 | -67.30398 | 9952 ft | 164 kts | 246° |
| 2026-05-05 23:14 | 10.75403 | -67.31506 | 9952 ft | 168 kts | 246° |
| 2026-05-05 23:14 | 10.75007 | -67.32631 | 9954 ft | 170 kts | 246° |
| 2026-05-05 23:15 | 10.74607 | -67.33769 | 9952 ft | 171 kts | 246° |
| 2026-05-05 23:15 | 10.74210 | -67.34897 | 9952 ft | 172 kts | 246° |
| 2026-05-05 23:15 | 10.73807 | -67.36043 | 9953 ft | 172 kts | 246° |
| 2026-05-05 23:15 | 10.73403 | -67.37187 | 9953 ft | 172 kts | 246° |
| 2026-05-05 23:16 | 10.73000 | -67.38332 | 9952 ft | 172 kts | 246° |
| 2026-05-05 23:16 | 10.72804 | -67.38887 | 9952 ft | 172 kts | 246° |
| 2026-05-05 23:17 | 10.72732 | -67.39091 | 9952 ft | 172 kts | 246° |
| 2026-05-05 23:18 | 10.72320 | -67.40232 | 9952 ft | 171 kts | 246° |
| 2026-05-05 23:18 | 10.71924 | -67.41377 | 9951 ft | 172 kts | 247° |
| 2026-05-05 23:18 | 10.71525 | -67.42520 | 9951 ft | 172 kts | 247° |
| 2026-05-05 23:18 | 10.71124 | -67.43664 | 9951 ft | 172 kts | 246° |
| 2026-05-05 23:19 | 10.70722 | -67.44807 | 9951 ft | 172 kts | 246° |
| 2026-05-05 23:19 | 10.70317 | -67.45949 | 9952 ft | 172 kts | 247° |
| 2026-05-05 23:19 | 10.69916 | -67.47090 | 9950 ft | 170 kts | 246° |
| 2026-05-05 23:19 | 10.69515 | -67.48222 | 9948 ft | 170 kts | 246° |
| 2026-05-05 23:20 | 10.69118 | -67.49350 | 9944 ft | 169 kts | 246° |
| 2026-05-05 23:20 | 10.68720 | -67.50475 | 9945 ft | 170 kts | 246° |
| 2026-05-05 23:20 | 10.68323 | -67.51603 | 9944 ft | 169 kts | 246° |
| 2026-05-05 23:20 | 10.67930 | -67.52714 | 9944 ft | 169 kts | 246° |
| 2026-05-05 23:21 | 10.67534 | -67.53837 | 9941 ft | 169 kts | 246° |
| 2026-05-05 23:21 | 10.67137 | -67.54960 | 9944 ft | 169 kts | 246° |
| 2026-05-05 23:21 | 10.66741 | -67.56079 | 9937 ft | 168 kts | 247° |
| 2026-05-05 23:21 | 10.66345 | -67.57199 | 9943 ft | 168 kts | 246° |
| 2026-05-05 23:22 | 10.65949 | -67.58319 | 9939 ft | 168 kts | 246° |
| 2026-05-05 23:22 | 10.65554 | -67.59440 | 9943 ft | 168 kts | 247° |
| 2026-05-05 23:22 | 10.65158 | -67.60559 | 9940 ft | 168 kts | 246° |
| 2026-05-05 23:22 | 10.64764 | -67.61675 | 9941 ft | 168 kts | 247° |
| 2026-05-05 23:23 | 10.64369 | -67.62793 | 9939 ft | 168 kts | 246° |
| 2026-05-05 23:23 | 10.63973 | -67.63911 | 9945 ft | 167 kts | 247° |
| 2026-05-05 23:23 | 10.63579 | -67.65025 | 9945 ft | 168 kts | 247° |
| 2026-05-05 23:23 | 10.63183 | -67.66142 | 9942 ft | 168 kts | 247° |
| 2026-05-05 23:24 | 10.62788 | -67.67260 | 9945 ft | 168 kts | 246° |
| 2026-05-05 23:24 | 10.62392 | -67.68378 | 9945 ft | 168 kts | 247° |
| 2026-05-05 23:24 | 10.62131 | -67.69117 | 9941 ft | 168 kts | 247° |
| 2026-05-05 23:24 | 10.61737 | -67.70236 | 9946 ft | 168 kts | 247° |
| 2026-05-05 23:25 | 10.61206 | -67.71730 | 9946 ft | 168 kts | 246° |
| 2026-05-05 23:25 | 10.60816 | -67.72834 | 9946 ft | 168 kts | 247° |
| 2026-05-05 23:25 | 10.60420 | -67.73956 | 9943 ft | 169 kts | 247° |
| 2026-05-05 23:25 | 10.60024 | -67.75080 | 9947 ft | 169 kts | 246° |
| 2026-05-05 23:26 | 10.59625 | -67.76199 | 9945 ft | 169 kts | 247° |
| 2026-05-05 23:26 | 10.59356 | -67.76960 | 9945 ft | 169 kts | 247° |
| 2026-05-05 23:26 | 10.58958 | -67.78082 | 9943 ft | 168 kts | 247° |
| 2026-05-05 23:26 | 10.58562 | -67.79198 | 9944 ft | 168 kts | 247° |
| 2026-05-05 23:27 | 10.58172 | -67.80303 | 9943 ft | 168 kts | 247° |
| 2026-05-05 23:27 | 10.57775 | -67.81425 | 9941 ft | 168 kts | 247° |
| 2026-05-05 23:27 | 10.57372 | -67.82556 | 9942 ft | 168 kts | 247° |
| 2026-05-05 23:27 | 10.56980 | -67.83660 | 9944 ft | 168 kts | 247° |
| 2026-05-05 23:28 | 10.56583 | -67.84788 | 9944 ft | 167 kts | 247° |
| 2026-05-05 23:28 | 10.56188 | -67.85902 | 9940 ft | 168 kts | 247° |
| 2026-05-05 23:28 | 10.55800 | -67.87001 | 9939 ft | 167 kts | 247° |
| 2026-05-05 23:28 | 10.55404 | -67.88113 | 9944 ft | 167 kts | 246° |
| 2026-05-05 23:29 | 10.55010 | -67.89221 | 9939 ft | 167 kts | 247° |
| 2026-05-05 23:29 | 10.54618 | -67.90331 | 9942 ft | 167 kts | 247° |
| 2026-05-05 23:29 | 10.54223 | -67.91441 | 9943 ft | 167 kts | 247° |
| 2026-05-05 23:29 | 10.53833 | -67.92550 | 9942 ft | 167 kts | 247° |
| 2026-05-05 23:30 | 10.53438 | -67.93655 | 9938 ft | 166 kts | 247° |
| 2026-05-05 23:30 | 10.53045 | -67.94761 | 9940 ft | 167 kts | 247° |
| 2026-05-05 23:30 | 10.52652 | -67.95869 | 9942 ft | 167 kts | 247° |
| 2026-05-05 23:30 | 10.52262 | -67.96977 | 9943 ft | 167 kts | 247° |
| 2026-05-05 23:31 | 10.51866 | -67.98083 | 9939 ft | 167 kts | 247° |
| 2026-05-05 23:31 | 10.51473 | -67.99192 | 9943 ft | 167 kts | 247° |
| 2026-05-05 23:31 | 10.51079 | -68.00304 | 9939 ft | 167 kts | 247° |
| 2026-05-05 23:31 | 10.50685 | -68.01411 | 9943 ft | 167 kts | 247° |
| 2026-05-05 23:32 | 10.50292 | -68.02519 | 9942 ft | 167 kts | 247° |
| 2026-05-05 23:32 | 10.49899 | -68.03626 | 9940 ft | 167 kts | 247° |
| 2026-05-05 23:32 | 10.49505 | -68.04736 | 9940 ft | 167 kts | 247° |
| 2026-05-05 23:32 | 10.49019 | -68.05786 | 9931 ft | 162 kts | 228° |
| 2026-05-05 23:33 | 10.48167 | -68.06502 | 9935 ft | 157 kts | 205° |
| 2026-05-05 23:33 | 10.47144 | -68.06815 | 9932 ft | 152 kts | 181° |
| 2026-05-05 23:33 | 10.46113 | -68.06707 | 9936 ft | 148 kts | 160° |
| 2026-05-05 23:33 | 10.45179 | -68.06280 | 9936 ft | 148 kts | 152° |
| 2026-05-05 23:34 | 10.44239 | -68.05854 | 9932 ft | 148 kts | 153° |
| 2026-05-05 23:34 | 10.43334 | -68.05439 | 9936 ft | 148 kts | 152° |
| 2026-05-05 23:34 | 10.42397 | -68.05006 | 9934 ft | 147 kts | 153° |
| 2026-05-05 23:34 | 10.41446 | -68.04569 | 9839 ft | 152 kts | 153° |
| 2026-05-05 23:35 | 10.40484 | -68.04125 | 9748 ft | 154 kts | 153° |
| 2026-05-05 23:35 | 10.39500 | -68.03672 | 9649 ft | 155 kts | 153° |
| 2026-05-05 23:35 | 10.38513 | -68.03216 | 9551 ft | 157 kts | 153° |
| 2026-05-05 23:35 | 10.37523 | -68.02763 | 9449 ft | 155 kts | 153° |
| 2026-05-05 23:36 | 10.36540 | -68.02309 | 9345 ft | 156 kts | 154° |
| 2026-05-05 23:36 | 10.35556 | -68.01859 | 9251 ft | 156 kts | 153° |
| 2026-05-05 23:36 | 10.34560 | -68.01389 | 9156 ft | 159 kts | 153° |
| 2026-05-05 23:36 | 10.33553 | -68.00926 | 9057 ft | 158 kts | 153° |
| 2026-05-05 23:37 | 10.32537 | -68.00461 | 8878 ft | 162 kts | 154° |
| 2026-05-05 23:37 | 10.31510 | -67.99991 | 8656 ft | 162 kts | 154° |
| 2026-05-05 23:37 | 10.30480 | -67.99516 | 8433 ft | 163 kts | 153° |
| 2026-05-05 23:37 | 10.29442 | -67.99036 | 8208 ft | 164 kts | 154° |
| 2026-05-05 23:38 | 10.28406 | -67.98560 | 7985 ft | 163 kts | 154° |
| 2026-05-05 23:38 | 10.27377 | -67.98085 | 7758 ft | 161 kts | 154° |
| 2026-05-05 23:38 | 10.26363 | -67.97618 | 7523 ft | 159 kts | 154° |
| 2026-05-05 23:38 | 10.25354 | -67.97150 | 7306 ft | 160 kts | 154° |
| 2026-05-05 23:39 | 10.24343 | -67.96684 | 7082 ft | 159 kts | 154° |
| 2026-05-05 23:39 | 10.23340 | -67.96225 | 6831 ft | 158 kts | 154° |
| 2026-05-05 23:39 | 10.22349 | -67.95768 | 6553 ft | 156 kts | 154° |
| 2026-05-05 23:39 | 10.21367 | -67.95314 | 6275 ft | 154 kts | 153° |
| 2026-05-05 23:40 | 10.20393 | -67.94864 | 6001 ft | 154 kts | 154° |
| 2026-05-05 23:40 | 10.19432 | -67.94424 | 5730 ft | 153 kts | 154° |
| 2026-05-05 23:40 | 10.18464 | -67.93978 | 5455 ft | 153 kts | 154° |
| 2026-05-05 23:40 | 10.17504 | -67.93535 | 5249 ft | 149 kts | 154° |
| 2026-05-05 23:41 | 10.16542 | -67.93180 | 5087 ft | 148 kts | 169° |
| 2026-05-05 23:41 | 10.15533 | -67.93251 | 5034 ft | 144 kts | 191° |
| 2026-05-05 23:41 | 10.14649 | -67.93688 | 5023 ft | 142 kts | 214° |
| 2026-05-05 23:41 | 10.14003 | -67.94436 | 5025 ft | 142 kts | 236° |
| 2026-05-05 23:42 | 10.13638 | -67.95365 | 5025 ft | 141 kts | 248° |
| 2026-05-05 23:42 | 10.13279 | -67.96288 | 5026 ft | 140 kts | 245° |
| 2026-05-05 23:42 | 10.12929 | -67.97204 | 5026 ft | 139 kts | 246° |
| 2026-05-05 23:42 | 10.12577 | -67.98128 | 4942 ft | 143 kts | 246° |
| 2026-05-05 23:43 | 10.12217 | -67.99086 | 4827 ft | 147 kts | 246° |
| 2026-05-05 23:43 | 10.11847 | -68.00057 | 4706 ft | 148 kts | 246° |
| 2026-05-05 23:43 | 10.11477 | -68.01037 | 4585 ft | 149 kts | 246° |
| 2026-05-05 23:43 | 10.11105 | -68.02020 | 4463 ft | 149 kts | 246° |
| 2026-05-05 23:44 | 10.10736 | -68.03003 | 4338 ft | 149 kts | 247° |
| 2026-05-05 23:44 | 10.10431 | -68.04007 | 4182 ft | 152 kts | 261° |
| 2026-05-05 23:44 | 10.10560 | -68.05082 | 3984 ft | 155 kts | 287° |
| 2026-05-05 23:44 | 10.11097 | -68.06023 | 3796 ft | 154 kts | 313° |
| 2026-05-05 23:45 | 10.11951 | -68.06660 | 3619 ft | 152 kts | 336° |
| 2026-05-05 23:45 | 10.12957 | -68.06886 | 3537 ft | 143 kts | 1° |
| 2026-05-05 23:45 | 10.13839 | -68.06752 | 3543 ft | 117 kts | 21° |
| 2026-05-05 23:45 | 10.14531 | -68.06396 | 3537 ft | 110 kts | 38° |
| 2026-05-05 23:46 | 10.15079 | -68.05860 | 3536 ft | 110 kts | 56° |
| 2026-05-05 23:46 | 10.15443 | -68.05188 | 3535 ft | 109 kts | 72° |
| 2026-05-05 23:46 | 10.15608 | -68.04435 | 3471 ft | 112 kts | 88° |
| 2026-05-05 23:46 | 10.15564 | -68.03629 | 3344 ft | 116 kts | 97° |
| 2026-05-05 23:47 | 10.15507 | -68.02810 | 3200 ft | 117 kts | 95° |
| 2026-05-05 23:47 | 10.15453 | -68.01981 | 3019 ft | 120 kts | 95° |
| 2026-05-05 23:47 | 10.15396 | -68.01147 | 2826 ft | 120 kts | 96° |
| 2026-05-05 23:47 | 10.15336 | -68.00300 | 2628 ft | 120 kts | 96° |
| 2026-05-05 23:48 | 10.15277 | -67.99455 | 2438 ft | 119 kts | 95° |
| 2026-05-05 23:48 | 10.15222 | -67.98625 | 2288 ft | 118 kts | 95° |
| 2026-05-05 23:48 | 10.15164 | -67.97801 | 2136 ft | 116 kts | 96° |
| 2026-05-05 23:48 | 10.15108 | -67.96992 | 1982 ft | 114 kts | 96° |
| 2026-05-05 23:49 | 10.15094 | -67.96209 | 1865 ft | 108 kts | 90° |
| 2026-05-05 23:49 | 10.15093 | -67.95445 | 1693 ft | 109 kts | 94° |
| 2026-05-05 23:49 | 10.15066 | -67.94692 | 1553 ft | 105 kts | 95° |
| 2026-05-05 23:49 | 10.15030 | -67.93984 | 1429 ft | 91 kts | 94° |
| 2026-05-05 23:50 | 10.15005 | -67.93445 | 1422 ft | 49 kts | 93° |
| 2026-05-05 23:50 | 10.14996 | -67.93256 | 1421 ft | 29 kts | 92° |
| 2026-05-05 23:50 | 10.14985 | -67.93055 | 1420 ft | 28 kts | 90° |
| 2026-05-05 23:50 | 10.14982 | -67.92968 | 1419 ft | 8 kts | 91° |
| 2026-05-05 23:51 | 10.14979 | -67.92881 | 1418 ft | 16 kts | 93° |
| 2026-05-05 23:51 | 10.14973 | -67.92757 | 1416 ft | 18 kts | 92° |
| 2026-05-05 23:51 | 10.14967 | -67.92623 | 1415 ft | 20 kts | 92° |
| 2026-05-05 23:51 | 10.14961 | -67.92478 | 1412 ft | 21 kts | 92° |
| 2026-05-05 23:52 | 10.14954 | -67.92344 | 1410 ft | 15 kts | 90° |
| 2026-05-05 23:52 | 10.15016 | -67.92277 | 1410 ft | 15 kts | 10° |
| 2026-05-05 23:52 | 10.15120 | -67.92271 | 1415 ft | 14 kts | 2° |
| 2026-05-05 23:52 | 10.15200 | -67.92279 | 1417 ft | 11 kts | 319° |
| 2026-05-05 23:53 | 10.15264 | -67.92324 | 1417 ft | 12 kts | 350° |
| 2026-05-05 23:53 | 10.15314 | -67.92312 | 1417 ft | 9 kts | 72° |
| 2026-05-05 23:53 | 10.15316 | -67.92278 | 1417 ft | 1 kts | 91° |
| 2026-05-05 23:53 | 10.15316 | -67.92276 | 1417 ft | 0 kts | 92° |
| 2026-05-05 23:54 | 10.15314 | -67.92273 | 1417 ft | 3 kts | 150° |
| 2026-05-05 23:54 | 10.15322 | -67.92349 | 1417 ft | 13 kts | 281° |
| 2026-05-05 23:54 | 10.15316 | -67.92329 | 1417 ft | 7 kts | 88° |
| 2026-05-05 23:54 | 10.15316 | -67.92274 | 1417 ft | 0 kts | 96° |
| 2026-05-05 23:55 | 10.15316 | -67.92270 | 1417 ft | 0 kts | 92° |